Flight Number: EUR1352 Duration: 1:30
Departure: Venice Marco Polo (LIPZ) at 18:30 Distance: 440 Nm
Arrival: Palermo Airport (LICJ) at 20:00 Equipment: B737

Weather Information
Venezia / Tessera, Italy (LIPZ) 45-30N 012-20E 6M Oct 19, 2018 - 01:50 PM EDT / 2018.10.19 1750 UTC
Wind: Variable at 1 MPH (1 KT):0
Visibility: greater than 7 mile(s):0 Temperature: 64 F (18 C) Dew Point: 53 F (12 C) Relative Humidity: 67% Pressure (altimeter): 30.09 in. Hg (1019 hPa)
ob: LIPZ 191750Z VRB01KT CAVOK 18/12 Q1019 NOSIG cycle: 18
Sunrise: 05:36 Sunset: 16:14 (UTC)

Palermo / Punta Raisi, Italy (LICJ) 38-11N 013-06E 21M Oct 19, 2018 - 01:50 PM EDT / 2018.10.19 1750 UTC
Wind: from the SW (220 degrees) at 10 MPH (9 KT):0
Visibility: greater than 7 mile(s):0 Temperature: 71 F (22 C) Dew Point: 66 F (19 C) Relative Humidity: 83% Pressure (altimeter): 29.97 in. Hg (1015 hPa)
ob: LICJ 191750Z 22009KT CAVOK 22/19 Q1015 cycle: 18
Sunrise: 05:23 Sunset: 16:21 (UTC)

TAF:2018/10/19 18:21 TAF LICJ 191700Z 1918/2018 08010KT 9999 SCT030 BECMG 1918/1920 VRB05KT BECMG 2010/2012 06010KT BECMG 2016/2018 VRB05KT

Previous Pireps for this route
Date Aircraft Flight time Fuel used Landing rate On time
2013-04-01B73701.357762-275Yes
2013-04-04B7371.4110800-319No
2013-04-08B7371.359500-257No
2013-07-12B7371.40120000Yes
2014-05-15B7371.55115000No
2015-01-26B7371.2281120No
2015-10-13B73701.319100-399Yes
2016-03-17B73701.429608-160No
2016-08-31B73701.1813466-94Yes
(pireps marked green are flown by you)

Route map